• Join FlightAware (Why Join?)
  • Login
  • US Flag 
04:55AM EDT


 

Airport Tracker/Info


-or-


 

Live Flight TrackerFlight Track Log ✈ N25627 ✈ 21-Jul-2013 ✈ KJKA - KSUZ

Flight Track Log - Related Links

Times and Time Zones

All times are in EDT time to prevent confusion due to time zone crossing. See the N25627 flight status page for this flight to view local times or setup timezone preferences in your user account.

Time Position Orientation Groundspeed Altitude Reporting Facility
EDT Latitude Longitude Course Direction KTS MPH feet Rate Location/Type
02:41PM 30.3239 -87.7050 330° Northwest 117 135 1,200  Level Jacksonville Center
02:42PM 30.3450 -87.7189 330° Northwest 157 181 1,600 600 Climbing Houston Center
02:43PM 30.3825 -87.7317 344° North 139 160 2,300 720 Climbing Houston Center
02:44PM 30.4203 -87.7336 357° North 136 157 3,100 660 Climbing Houston Center
02:45PM 30.4542 -87.7403 350° North 131 151 3,700 360 Climbing Houston Center
02:46PM 30.4822 -87.7806 309° West 133 153 3,900 60 Climbing Houston Center
02:47PM 30.5125 -87.8183 313° West 146 168 3,900  Level Houston Center
02:48PM 30.5419 -87.8597 310° West 157 181 3,900  Level Houston Center
02:49PM 30.5756 -87.8989 315° West 166 191 3,900  Level Houston Center
02:50PM 30.6108 -87.9361 318° Northwest 169 194 3,900  Level Houston Center
02:51PM 30.6464 -87.9733 318° Northwest 171 197 3,900  Level Houston Center
02:52PM 30.6822 -88.0108 318° Northwest 172 198 3,900  Level Houston Center
02:53PM 30.7242 -88.0569 317° Northwest 173 199 3,900  Level Houston Center
02:54PM 30.7600 -88.0956 317° Northwest 173 199 3,900  Level Houston Center
02:55PM 30.7956 -88.1331 318° Northwest 174 200 3,900  Level Houston Center
02:56PM 30.8308 -88.1714 317° Northwest 173 199 3,900  Level Houston Center
02:57PM 30.8658 -88.2097 317° Northwest 172 198 3,900  Level Houston Center
02:58PM 30.9006 -88.2478 317° Northwest 172 198 3,900  Level Houston Center
02:59PM 30.9353 -88.2858 317° Northwest 170 196 3,900  Level Houston Center
03:00PM 30.9689 -88.3247 315° West 169 194 3,900  Level Houston Center
03:01PM 31.0125 -88.3744 316° Northwest 176 203 3,900  Level Houston Center
03:02PM 31.0489 -88.4119 319° Northwest 175 201 3,900  Level Houston Center
03:03PM 31.0833 -88.4469 319° Northwest 168 193 3,900  Level Houston Center
03:04PM 31.1181 -88.4825 319° Northwest 165 190 3,900  Level Houston Center
03:05PM 31.1519 -88.5192 317° Northwest 166 191 3,900  Level Houston Center
03:06PM 31.1861 -88.5550 318° Northwest 164 189 3,900  Level Houston Center
03:08PM 31.2203 -88.5917 317° Northwest 166 191 3,900  Level Houston Center
03:09PM 31.2619 -88.6350 318° Northwest 167 192 3,900  Level Houston Center
03:10PM 31.2964 -88.6717 318° Northwest 167 192 3,900  Level Houston Center
03:11PM 31.3286 -88.7100 315° West 166 191 3,900  Level Houston Center
03:12PM 31.3633 -88.7464 318° Northwest 166 191 3,900  Level Houston Center
03:13PM 31.3986 -88.7861 316° Northwest 172 198 3,900  Level Houston Center
03:14PM 31.4314 -88.8269 313° West 172 198 3,900  Level Houston Center
03:15PM 31.4672 -88.8642 318° Northwest 173 199 3,900  Level Houston Center
03:16PM 31.5067 -88.9100 315° West 169 194 3,900  Level Houston Center
03:17PM 31.5400 -88.9478 316° Northwest 168 193 3,900  Level Houston Center
03:18PM 31.5744 -88.9858 317° Northwest 169 194 3,900 480 Level Houston Center
03:19PM 31.6067 -89.0181 320° Northwest 158 182 4,900 780 Climbing Houston Center
03:20PM 31.6325 -89.0444 319° Northwest 130 150 5,600 480 Climbing Houston Center
03:21PM 31.6583 -89.0764 314° West 131 151 6,000 180 Climbing Houston Center
03:22PM 31.6894 -89.1117 316° Northwest 148 170 6,000  Level Houston Center
03:23PM 31.7300 -89.1608 314° West 169 194 6,000  Level Houston Center
03:24PM 31.7631 -89.2019 313° West 172 198 6,000  Level Houston Center
03:25PM 31.7967 -89.2419 315° West 172 198 6,000  Level Houston Center
03:26PM 31.8314 -89.2811 316° Northwest 173 199 6,000  Level Houston Center
03:27PM 31.8644 -89.3189 316° Northwest 168 193 6,000  Level Houston Center
03:28PM 31.8933 -89.3517 316° Northwest 168 193 6,000  Level Memphis Center
03:29PM 31.9250 -89.3881 316° Northwest 168 193 6,000  Level Memphis Center
03:30PM 31.9586 -89.4219 319° Northwest 168 193 6,000  Level Memphis Center
03:31PM 31.9944 -89.4561 321° Northwest 168 193 6,000  Level Memphis Center
03:32PM 32.0258 -89.4900 318° Northwest 168 193 6,000  Level Memphis Center
03:33PM 32.0575 -89.5264 316° Northwest 163 188 6,000  Level Memphis Center
03:34PM 32.0931 -89.5603 321° Northwest 163 188 6,000  Level Memphis Center
03:35PM 32.1308 -89.5992 319° Northwest 170 196 6,000  Level Memphis Center
03:36PM 32.1667 -89.6358 319° Northwest 170 196 6,000  Level Memphis Center
03:37PM 32.2025 -89.6722 319° Northwest 170 196 6,000  Level Memphis Center
03:38PM 32.2381 -89.7039 323° Northwest 170 196 6,000  Level Memphis Center
03:39PM 32.2717 -89.7381 319° Northwest 170 196 6,000  Level Memphis Center
03:40PM 32.3072 -89.7722 321° Northwest 165 190 6,000  Level Memphis Center
03:41PM 32.3472 -89.8114 320° Northwest 165 190 6,000  Level Memphis Center
03:42PM 32.3806 -89.8481 317° Northwest 165 190 6,000  Level Memphis Center
03:43PM 32.4142 -89.8822 319° Northwest 165 190 6,000  Level Memphis Center
03:44PM 32.4456 -89.9142 319° Northwest 160 184 6,000 -60 Level Memphis Center
03:45PM 32.4772 -89.9508 316° Northwest 160 184 5,900  Descending Memphis Center
03:46PM 32.5128 -89.9828 323° Northwest 155 178 6,000  Climbing Memphis Center
03:47PM 32.5461 -90.0147 321° Northwest 155 178 6,000  Level Memphis Center
03:48PM 32.5775 -90.0492 317° Northwest 155 178 6,100  Climbing Memphis Center
03:49PM 32.6131 -90.0883 317° Northwest 160 184 6,000 -60 Descending Memphis Center
03:50PM 32.6467 -90.1203 321° Northwest 160 184 6,000  Level Memphis Center
03:51PM 32.6800 -90.1525 321° Northwest 160 184 6,000  Level Memphis Center
03:52PM 32.7136 -90.1869 319° Northwest 160 184 6,000  Level Memphis Center
03:53PM 32.7450 -90.2189 319° Northwest 160 184 6,000  Level Memphis Center
03:54PM 32.7764 -90.2511 319° Northwest 160 184 6,000  Level Memphis Center
03:55PM 32.8056 -90.2831 317° Northwest 155 178 6,000  Level Memphis Center
03:56PM 32.8369 -90.3153 319° Northwest 155 178 6,000  Level Memphis Center
03:57PM 32.8681 -90.3475 319° Northwest 155 178 6,000  Level Memphis Center
03:58PM 32.9017 -90.3819 319° Northwest 155 178 6,100  Climbing Memphis Center
03:59PM 32.9369 -90.4142 323° Northwest 155 178 6,000 -120 Descending Memphis Center
04:00PM 32.9706 -90.4489 319° Northwest 160 184 5,900 -60 Descending Memphis Center
04:01PM 33.0017 -90.4811 319° Northwest 160 184 5,900  Level Memphis Center
04:02PM 33.0350 -90.5158 319° Northwest 160 184 5,900  Level Memphis Center
04:03PM 33.0664 -90.5456 322° Northwest 160 184 5,900  Level Memphis Center
04:04PM 33.0997 -90.5806 319° Northwest 160 184 5,900  Level Memphis Center
04:05PM 33.1331 -90.6153 319° Northwest 160 184 5,900  Level Memphis Center
04:06PM 33.1622 -90.6500 315° West 160 184 5,900  Level Memphis Center
04:07PM 33.1933 -90.6900 313° West 160 184 5,900  Level Memphis Center
04:08PM 33.2225 -90.7247 315° West 154 177 5,900  Level Memphis Center
04:09PM 33.2558 -90.7597 319° Northwest 154 177 5,900  Level Memphis Center
04:10PM 33.2869 -90.7947 317° Northwest 149 171 5,900  Level Memphis Center
04:11PM 33.3183 -90.8272 319° Northwest 149 171 5,900  Level Memphis Center
04:12PM 33.3494 -90.8619 317° Northwest 149 171 5,900  Level Memphis Center
04:13PM 33.3806 -90.8944 319° Northwest 149 171 5,900  Level Memphis Center
04:14PM 33.4158 -90.9322 318° Northwest 149 171 5,900  Level Memphis Center
04:15PM 33.4450 -90.9672 315° West 149 171 5,900  Level Memphis Center
04:16PM 33.4761 -90.9997 319° Northwest 149 171 5,900  Level Memphis Center
04:17PM 33.5050 -91.0372 313° West 149 171 5,900  Level Memphis Center
04:18PM 33.5342 -91.0775 311° West 144 166 6,000  Climbing Memphis Center
04:19PM 33.5672 -91.1075 323° Northwest 144 166 6,000  Level Memphis Center
04:20PM 33.5983 -91.1428 317° Northwest 144 166 6,000  Level Memphis Center
04:21PM 33.6317 -91.1756 321° Northwest 144 166 6,000  Level Memphis Center
04:22PM 33.6606 -91.2108 315° West 144 166 6,000  Level Memphis Center
04:23PM 33.6936 -91.2461 318° Northwest 144 166 6,000  Level Memphis Center
04:24PM 33.7247 -91.2789 319° Northwest 149 171 6,000  Level Memphis Center
04:25PM 33.7558 -91.3142 317° Northwest 149 171 6,000  Level Memphis Center
04:26PM 33.7828 -91.3494 313° West 144 166 6,000  Level Memphis Center
04:27PM 33.8117 -91.3822 317° Northwest 144 166 6,000  Level Memphis Center
04:28PM 33.8428 -91.4175 317° Northwest 144 166 6,000  Level Memphis Center
04:29PM 33.8736 -91.4556 314° West 144 166 6,000  Level Memphis Center
04:30PM 33.9025 -91.4883 317° Northwest 144 166 6,000  Level Memphis Center
04:31PM 33.9294 -91.5264 310° West 144 166 6,000  Level Memphis Center
04:32PM 33.9561 -91.5617 312° West 144 166 6,000  Level Memphis Center
04:33PM 33.9850 -91.5972 314° West 144 166 6,000  Level Memphis Center
04:34PM 34.0097 -91.6300 312° West 144 166 6,000  Level Memphis Center
04:35PM 34.0364 -91.6681 310° West 144 166 6,000  Level Memphis Center
04:36PM 34.0653 -91.7011 317° Northwest 151 174 6,000  Level Memphis Center
04:37PM 34.0922 -91.7367 312° West 154 177 6,000 -60 Level Memphis Center
04:38PM 34.1208 -91.7747 312° West 149 171 5,900 -480 Descending Memphis Center
04:39PM 34.1558 -91.8206 313° West 181 208 5,100 -660 Descending Memphis Center
04:40PM 34.1867 -91.8639 311° West 181 208 4,600 -600 Descending Memphis Center
04:41PM 34.2236 -91.9147 311° West 188 216 4,000 -300 Descending Memphis Center
04:42PM 34.2586 -91.9581 314° West 193 222 4,000  Level Memphis Center
04:43PM 34.2914 -92.0064 309° West 179 206 4,000 900 Level Memphis Center
04:44PM 34.0981 -91.7594 133° Southeast 144 166 6,000 900 Climbing Memphis Center
04:45PM 34.0981 -91.7594 220° Southwest 144 166 6,000  Level Memphis Center
04:46PM 34.3650 -92.1033 313° West 144 166 6,000 -1,440 Level Memphis Center
04:47PM 34.4328 -92.1853 315° West 191 220 3,300 -1,500 Descending Memphis Center
04:48PM 34.4633 -92.2339 307° West 165 190 3,200 1,260 Descending Memphis Center
04:49PM 34.5025 -92.2725 321° Northwest 179 206 6,000 1,320 Climbing Memphis Center
04:50PM 34.5331 -92.3186 309° West 179 206 6,000  Level Memphis Center